• Join FlightAware (Why Join?)
  • Login
  • US Flag 
 
08:31AM EST


 

Airport Tracker/Info


-or-


 

Live Flight TrackerFlight Track Log ✈ UAL1447 ✈ 24-May-2012 ✈ KIAH - KORD

Flight Track Log - Related Links

Times and Time Zones

All times are in EDT time to prevent confusion due to time zone crossing. See the UAL1447 flight status page for this flight to view local times or setup timezone preferences in your user account.

Time Position Orientation Groundspeed Altitude Reporting Facility
EDT Latitude Longitude Course Direction KTS MPH feet Rate Location/Type
10:32PM 30.0215 -95.2952 184° South  Level FlightAware Approximate
10:32PM 29.9781 -95.2983 27° Northeast 166 191 800  Level Houston Center
10:37PM 30.2686 -95.1261 35° Northeast 308 354 10,600 2,100 Climbing Houston Center
10:38PM 30.3494 -95.0614 35° Northeast 327 376 12,400 2,460 Climbing Houston Center
10:39PM 30.4392 -94.9872 36° Northeast 349 402 15,600 2,700 Climbing Houston Center
10:40PM 30.5222 -94.9178 35° Northeast 355 409 17,800 2,040 Climbing Houston Center
10:41PM 30.6094 -94.8481 33° Northeast 365 420 19,700 1,860 Climbing Houston Center
10:42PM 30.7028 -94.7764 34° Northeast 382 440 21,600 1,860 Climbing Houston Center
10:43PM 30.8453 -94.6650 32° Northeast 402 463 24,600 1,620 Climbing Fort Worth Center
10:44PM 30.9458 -94.5917 36° Northeast 410 472 26,000 1,320 Climbing Fort Worth Center
10:45PM 31.0422 -94.5111 32° Northeast 410 472 27,300 1,200 Climbing Fort Worth Center
10:46PM 31.1572 -94.4275 35° Northeast 423 487 28,500 1,200 Climbing Fort Worth Center
10:47PM 31.2533 -94.3492 34° Northeast 445 512 29,700 1,500 Climbing Fort Worth Center
10:48PM 31.3578 -94.2681 33° Northeast 451 519 31,600 1,620 Climbing Fort Worth Center
10:49PM 31.4603 -94.1889 34° Northeast 446 513 33,000 660 Climbing Fort Worth Center
10:50PM 31.5606 -94.1100 33° Northeast 446 513 33,000  Level Fort Worth Center
10:51PM 31.6711 -94.0256 21° North 446 513 33,000  Level Fort Worth Center
10:52PM 31.7864 -93.9722 19° North 434 499 33,000  Level Fort Worth Center
10:53PM 31.9022 -93.9264 19° North 434 499 33,000  Level Fort Worth Center
10:54PM 32.0075 -93.8831 19° North 434 499 33,100 600 Climbing Fort Worth Center
10:55PM 32.1231 -93.8369 21° North 439 505 34,200 900 Climbing Fort Worth Center
10:56PM 32.2508 -93.7781 18° North 434 499 35,000 360 Climbing Fort Worth Center
10:57PM 32.3664 -93.7339 20° North 434 499 35,000  Level Fort Worth Center
10:58PM 32.4817 -93.6850 18° North 440 506 35,000  Level Fort Worth Center
10:59PM 32.6036 -93.6381 19° North 440 506 35,000  Level Fort Worth Center
11:00PM 32.7211 -93.5911 19° North 440 506 35,000  Level Fort Worth Center
11:01PM 32.8386 -93.5417 19° North 440 506 35,000  Level Fort Worth Center
11:02PM 32.9581 -93.4919 18° North 440 506 35,000  Level Fort Worth Center
11:03PM 33.0775 -93.4444 20° North 440 506 35,000  Level Fort Worth Center
11:04PM 33.1867 -93.3975 18° North 446 513 35,000  Level Fort Worth Center
11:05PM 33.3083 -93.3497 18° North 446 513 35,000  Level Fort Worth Center
11:06PM 33.4300 -93.3017 19° North 451 519 35,000  Level Fort Worth Center
11:08PM 33.6519 -93.2094 18° North 450 518 35,000  Level Memphis Center
11:09PM 33.7719 -93.1633 19° North 445 512 35,000 60 Level Memphis Center
11:10PM 33.8919 -93.1147 19° North 445 512 35,200 960 Climbing Memphis Center
11:11PM 34.0078 -93.0658 20° North 445 512 37,000 900 Climbing Memphis Center
11:12PM 34.1214 -93.0167 20° North 439 505 37,000  Level Memphis Center
11:13PM 34.2353 -92.9675 20° North 434 499 37,000  Level Memphis Center
11:14PM 34.3469 -92.9181 18° North 428 493 37,000  Level Memphis Center
11:15PM 34.4647 -92.8711 20° North 428 493 37,000  Level Memphis Center
11:16PM 34.5806 -92.8192 19° North 435 501 37,000  Level Memphis Center
11:17PM 34.6961 -92.7719 20° North 435 501 37,000  Level Memphis Center
11:18PM 34.8267 -92.7150 19° North 435 501 37,000  Level Memphis Center
11:19PM 34.9444 -92.6650 20° North 441 507 37,000  Level Memphis Center
11:20PM 35.0600 -92.6147 20° North 441 507 37,000  Level Memphis Center
11:21PM 35.1778 -92.5622 20° North 441 507 37,000  Level Memphis Center
11:22PM 35.2914 -92.5117 18° North 441 507 37,000  Level Memphis Center
11:23PM 35.4089 -92.4639 21° North 441 507 37,000  Level Memphis Center
11:24PM 35.5244 -92.4106 19° North 441 507 37,000  Level Memphis Center
11:25PM 35.6400 -92.3622 19° North 441 507 37,000  Level Memphis Center
11:26PM 35.7556 -92.3139 19° North 441 507 37,000  Level Memphis Center
11:27PM 35.8731 -92.2631 20° North 441 507 37,000  Level Memphis Center
11:28PM 35.9886 -92.2117 19° North 441 507 37,000  Level Memphis Center
11:29PM 36.1061 -92.1606 20° North 441 507 37,000  Level Memphis Center
11:30PM 36.2236 -92.1064 20° North 441 507 37,000  Level Memphis Center
11:31PM 36.3411 -92.0547 20° North 441 507 37,000  Level Memphis Center
11:32PM 36.4625 -92.0006 20° North 446 513 37,000  Level Memphis Center
11:33PM 36.5653 -91.9536 19° North 446 513 37,000  Level Memphis Center
11:35PM 36.8256 -91.8386 20° North 445 512 37,000  Level Kansas City Center
11:36PM 36.9456 -91.7850 20° North 445 512 37,000  Level Kansas City Center
11:37PM 37.0653 -91.7314 21° North 445 512 37,000  Level Kansas City Center
11:38PM 37.1828 -91.6750 19° North 445 512 37,000  Level Kansas City Center
11:39PM 37.3025 -91.6236 20° North 445 512 37,000  Level Kansas City Center
11:40PM 37.4242 -91.5667 21° North 450 518 37,000  Level Kansas City Center
11:41PM 37.5439 -91.5094 20° North 450 518 37,000  Level Kansas City Center
11:42PM 37.6697 -91.4519 20° North 457 526 37,000  Level Kansas City Center
11:43PM 37.7911 -91.3972 20° North 464 534 37,000  Level Kansas City Center
11:44PM 37.9192 -91.3392 21° North 469 540 37,000  Level Kansas City Center
11:45PM 38.0406 -91.2814 20° North 469 540 37,000  Level Kansas City Center
11:46PM 38.1722 -91.2203 21° North 463 533 37,000  Level Kansas City Center
11:47PM 38.2939 -91.1619 20° North 463 533 37,000  Level Kansas City Center
11:48PM 38.4194 -91.1033 20° North 463 533 37,000  Level Kansas City Center
11:49PM 38.5428 -91.0444 20° North 463 533 37,000  Level Kansas City Center
11:50PM 38.6661 -90.9881 23° Northeast 463 533 37,000  Level Kansas City Center
11:51PM 38.7728 -90.9297 23° Northeast 463 533 37,000  Level Kansas City Center
11:52PM 38.9083 -90.8564 22° Northeast 470 541 37,000 -360 Level Kansas City Center
11:53PM 39.0272 -90.7942 23° Northeast 459 528 36,300 -840 Descending Kansas City Center
11:54PM 39.1361 -90.7350 24° Northeast 465 535 35,400 -660 Descending Kansas City Center
11:55PM 39.2650 -90.6614 23° Northeast 465 535 35,000 -240 Descending Kansas City Center
11:56PM 39.3736 -90.6019 23° Northeast 465 535 35,000  Level Kansas City Center
11:57PM 39.5067 -90.5300 23° Northeast 470 541 35,000  Level Kansas City Center
11:58PM 39.6131 -90.4703 24° Northeast 463 533 35,000  Level Kansas City Center
11:59PM 39.7397 -90.3983 24° Northeast 463 533 35,000  Level Kansas City Center
12:01AM 39.9347 -90.2867 23° Northeast 470 541 35,000  Level Chicago Center
12:02AM 40.0542 -90.2206 23° Northeast 470 541 35,000  Level Chicago Center
12:03AM 40.1756 -90.1542 23° Northeast 470 541 35,000 -300 Level Chicago Center
12:04AM 40.2928 -90.0875 24° Northeast 459 528 34,500 -900 Descending Chicago Center
12:05AM 40.4119 -90.0181 30° Northeast 459 528 33,300 -1,500 Descending Chicago Center
12:06AM 40.5397 -89.9208 43° Northeast 459 528 31,500 -1,200 Descending Chicago Center
12:07AM 40.6383 -89.7986 43° Northeast 488 562 31,000 -540 Descending Chicago Center
12:08AM 40.7386 -89.6733 43° Northeast 488 562 30,500 -1,560 Descending Chicago Center
12:09AM 40.8347 -89.5558 43° Northeast 482 555 27,900 -2,520 Descending Chicago Center
12:10AM 40.9350 -89.4325 43° Northeast 475 547 25,500 -2,340 Descending Chicago Center
12:11AM 41.0269 -89.3197 44° Northeast 463 533 23,300 -2,220 Descending Chicago Center
12:12AM 41.1164 -89.2039 42° Northeast 450 518 21,100 -2,160 Descending Chicago Center
12:13AM 41.2017 -89.1017 43° Northeast 435 501 19,000 -2,220 Descending Chicago Center
12:14AM 41.2806 -89.0044 44° Northeast 430 495 16,700 -2,280 Descending Chicago Center
12:15AM 41.3636 -88.8961 42° Northeast 418 481 14,500 -2,100 Descending Chicago Center
12:16AM 41.4486 -88.7931 48° Northeast 418 481 12,500 -1,800 Descending Chicago Center
12:17AM 41.5231 -88.6817 61° Northeast 405 466 11,000 -780 Descending Chicago Center
12:18AM 41.5744 -88.5589 48° Northeast 395 455 11,000  Level Chicago Center
12:19AM 41.6506 -88.4439 50° Northeast 382 440 11,000  Level Chicago Center
12:20AM 41.7186 -88.3344 49° Northeast 377 434 11,000 -360 Level Chicago Center
12:21AM 41.7844 -88.2333 49° Northeast 371 427 10,300 -1,080 Descending Chicago Center
12:22AM 41.8439 -88.1431 North 345 397 8,900 -1,500 Descending Chicago Center
12:23AM 41.9269 -88.1275 11° North 298 343 7,400 -1,200 Descending Chicago Center
12:24AM 41.9667 -88.1167 360° North 277 319 7,000 -1,020 Descending Chicago TRACON
12:25AM 42.0333 -88.1167 37° Northeast 237 273 5,800 -1,560 Descending Chicago TRACON
12:26AM 42.0833 -88.0667 114° Southeast 246 283 3,900 -1,620 Descending Chicago TRACON
12:27AM 42.0667 -88.0167 132° Southeast 152 175 2,400 -1,140 Descending Chicago TRACON
12:28AM 42.0333 -87.9667 143° Southeast 153 176 1,600 -840 Descending Chicago TRACON
12:29AM 42.0000 -87.9333 143° Southeast 153 176 900 -780 Descending Chicago TRACON